Time;durP1;ratioP1;P1;durP2;ratioP2;P2;SDS_P1;SDS_P2;PMS_P1;PMS_P2;Temp;Humidity;BMP_temperature;BMP_pressure;BME280_temperature;BME280_humidity;BME280_pressure;Samples;Min_cycle;Max_cycle;Signal;HPM_P1;HPM_P2
2023/10/01 00:00:12;;;;;;;7.27;5.27;;;14.90;99.90;;;;;;4995461;28;20547;-87
2023/10/01 00:02:41;;;;;;;10.83;6.37;;;14.70;1.00;;;;;;4994960;28;20484;-87
2023/10/01 00:05:10;;;;;;;9.60;6.00;;;14.70;1.00;;;;;;4995489;28;20504;-88
2023/10/01 00:07:38;;;;;;;12.83;6.03;;;14.60;1.00;;;;;;4997911;28;20546;-87
2023/10/01 00:10:10;;;;;;;11.57;6.60;;;14.60;99.90;;;;;;4997400;28;21068;-87
2023/10/01 00:12:38;;;;;;;7.97;5.87;;;14.60;1.00;;;;;;4994969;28;20539;-87
2023/10/01 00:15:10;;;;;;;7.43;5.17;;;14.60;99.90;;;;;;5000615;28;20472;-87
2023/10/01 00:17:37;;;;;;;7.13;5.97;;;14.50;1.00;;;;;;5013426;28;20441;-87
2023/10/01 00:20:14;;;;;;;9.67;5.50;;;14.50;1.00;;;;;;5007364;28;20456;-87
2023/10/01 00:22:41;;;;;;;12.33;5.33;;;14.40;4.90;;;;;;5003188;28;20817;-87
2023/10/01 00:25:09;;;;;;;7.63;4.90;;;14.40;1.00;;;;;;4999579;28;20479;-88
2023/10/01 00:27:37;;;;;;;7.43;4.50;;;14.30;1.00;;;;;;4998118;28;20456;-87
2023/10/01 00:30:08;;;;;;;7.73;5.20;;;14.20;9.70;;;;;;4998818;28;20530;-87
2023/10/01 00:32:35;;;;;;;10.53;5.20;;;14.30;2.80;;;;;;5000193;28;20535;-86
2023/10/01 00:35:10;;;;;;;9.00;5.17;;;14.30;1.00;;;;;;5001067;28;20984;-86
2023/10/01 00:37:38;;;;;;;6.40;4.70;;;14.30;1.00;;;;;;4999591;28;20470;-87
2023/10/01 00:40:14;;;;;;;7.93;5.43;;;14.30;1.00;;;;;;5001304;28;20455;-86
2023/10/01 00:42:42;;;;;;;14.40;5.33;;;14.20;9.90;;;;;;5000371;28;20805;-87
2023/10/01 00:45:13;;;;;;;11.53;5.70;;;14.30;6.30;;;;;;5001118;28;20464;-87
2023/10/01 00:47:42;;;;;;;6.60;4.90;;;14.30;1.00;;;;;;4999778;28;20446;-87
2023/10/01 00:50:13;;;;;;;5.50;4.47;;;14.10;99.90;;;;;;4998862;28;20482;-87
2023/10/01 00:52:41;;;;;;;9.80;5.50;;;14.20;99.90;;;;;;5005273;28;20467;-87
2023/10/01 00:55:10;;;;;;;6.60;4.40;;;14.40;1.00;;;;;;4998927;28;20500;-86
2023/10/01 00:57:39;;;;;;;8.37;5.10;;;14.40;1.00;;;;;;4997897;28;20897;-86
2023/10/01 01:00:12;;;;;;;5.60;4.00;;;14.50;99.90;;;;;;5000597;28;20444;-86
2023/10/01 01:02:46;;;;;;;10.90;5.20;;;14.50;99.90;;;;;;5019787;28;20472;-85
2023/10/01 01:05:23;;;;;;;7.87;3.90;;;14.30;1.00;;;;;;5021082;28;20495;-86
2023/10/01 01:07:51;;;;;;;7.67;4.07;;;14.50;99.90;;;;;;5020122;28;20471;-86
2023/10/01 01:10:20;;;;;;;6.67;3.70;;;14.30;1.00;;;;;;5013019;28;20449;-86
2023/10/01 01:12:53;;;;;;;5.00;4.50;;;14.40;1.00;;;;;;5006544;28;20456;-86
2023/10/01 01:15:21;;;;;;;8.27;5.10;;;14.70;99.90;;;;;;4998646;28;20567;-86
2023/10/01 01:17:50;;;;;;;6.37;4.33;;;14.40;1.00;;;;;;4998043;28;20480;-86
2023/10/01 01:20:19;;;;;;;4.20;3.80;;;14.30;1.00;;;;;;4997315;28;20465;-87
2023/10/01 01:22:53;;;;;;;6.00;4.13;;;14.30;1.00;;;;;;4997887;28;20532;-86
2023/10/01 01:25:25;;;;;;;7.30;4.80;;;14.30;1.00;;;;;;4997273;28;20567;-86
2023/10/01 01:27:53;;;;;;;7.67;4.90;;;14.30;99.90;;;;;;4998026;28;20799;-86
2023/10/01 01:30:26;;;;;;;8.77;6.53;;;14.30;99.90;;;;;;4997551;28;20487;-86
2023/10/01 01:32:55;;;;;;;9.53;4.50;;;14.30;1.00;;;;;;5003533;28;20491;-86
2023/10/01 01:35:27;;;;;;;5.20;3.70;;;14.60;1.00;;;;;;5007796;28;20444;-86
2023/10/01 01:37:58;;;;;;;10.00;5.37;;;14.40;1.00;;;;;;5003210;28;20452;-87
2023/10/01 01:40:31;;;;;;;8.80;4.00;;;14.40;1.00;;;;;;4996963;28;20468;-86
2023/10/01 01:43:04;;;;;;;5.80;3.57;;;14.20;99.90;;;;;;4997007;28;20503;-86
2023/10/01 01:45:38;;;;;;;5.90;3.77;;;14.40;1.00;;;;;;4996342;28;20472;-86
2023/10/01 01:48:21;;;;;;;7.70;4.07;;;14.40;1.00;;;;;;4997379;28;20446;-87
2023/10/01 01:50:49;;;;;;;4.83;3.57;;;14.40;1.00;;;;;;4997031;28;20460;-87
2023/10/01 01:53:18;;;;;;;5.53;4.00;;;14.40;1.00;;;;;;4996531;28;20881;-87
2023/10/01 01:55:45;;;;;;;5.53;4.10;;;14.60;99.90;;;;;;4996033;28;20474;-87
2023/10/01 01:58:15;;;;;;;5.63;3.83;;;14.40;1.00;;;;;;4995773;28;20953;-87
2023/10/01 02:01:01;;;;;;;4.73;3.50;;;14.40;1.00;;;;;;4996291;28;20452;-88
2023/10/01 02:03:30;;;;;;;10.97;4.57;;;14.40;1.00;;;;;;4997524;28;20481;-85
2023/10/01 02:05:59;;;;;;;8.47;3.57;;;14.40;1.00;;;;;;4998033;28;20476;-88
2023/10/01 02:08:44;;;;;;;6.70;3.80;;;14.50;99.90;;;;;;5004134;28;20507;-87
2023/10/01 02:11:13;;;;;;;8.90;4.30;;;14.40;1.00;;;;;;5000975;28;20413;-87
2023/10/01 02:13:41;;;;;;;9.90;3.10;;;14.40;1.00;;;;;;5001796;28;20440;-87
2023/10/01 02:16:34;;;;;;;6.87;4.67;;;14.10;99.90;;;;;;5019405;28;20580;-86
2023/10/01 02:19:14;;;;;;;8.20;3.60;;;14.30;1.00;;;;;;5017766;28;20437;-85
2023/10/01 02:21:48;;;;;;;10.07;4.00;;;14.30;1.00;;;;;;5018081;28;20442;-87
2023/10/01 02:24:22;;;;;;;6.17;3.50;;;14.70;99.90;;;;;;5010077;28;20663;-86
2023/10/01 02:26:53;;;;;;;6.93;3.53;;;14.30;1.00;;;;;;4996930;28;20468;-87
2023/10/01 02:29:24;;;;;;;8.10;4.20;;;14.30;1.00;;;;;;4996343;28;20499;-86
2023/10/01 02:31:55;;;;;;;6.30;4.10;;;14.30;1.00;;;;;;4996093;28;20428;-87
2023/10/01 02:34:22;;;;;;;6.27;3.53;;;14.60;99.90;;;;;;4995725;28;20835;-87
2023/10/01 02:36:49;;;;;;;6.93;5.03;;;14.30;1.00;;;;;;4995476;28;20468;-87
2023/10/01 02:39:21;;;;;;;8.97;3.87;;;14.40;1.00;;;;;;5001861;28;20486;-87
2023/10/01 02:42:09;;;;;;;3.53;3.23;;;14.70;99.90;;;;;;5016066;28;20429;-86
2023/10/01 02:44:38;;;;;;;7.13;3.33;;;14.10;99.90;;;;;;5018425;28;20484;-86
2023/10/01 02:47:16;;;;;;;6.90;3.50;;;14.70;99.90;;;;;;5018111;28;20488;-86
2023/10/01 02:49:49;;;;;;;9.30;3.43;;;14.40;1.00;;;;;;5018640;28;20440;-86
2023/10/01 02:52:17;;;;;;;4.03;3.17;;;14.40;1.00;;;;;;5018538;28;20467;-86
2023/10/01 02:54:47;;;;;;;5.10;3.23;;;14.40;99.90;;;;;;5018270;28;20484;-86
2023/10/01 02:57:23;;;;;;;11.90;3.50;;;13.70;1.00;;;;;;5018673;28;20464;-86
2023/10/01 03:00:20;;;;;;;6.10;3.80;;;14.40;1.00;;;;;;5015605;28;20818;-86
2023/10/01 03:02:51;;;;;;;4.47;3.63;;;14.70;99.90;;;;;;5013148;28;20480;-87
2023/10/01 03:05:49;;;;;;;5.67;3.50;;;14.30;1.00;;;;;;5017661;28;20456;-87
2023/10/01 03:11:42;;;;;;;7.47;3.63;;;14.30;1.00;;;;;;4999221;28;20493;-86
2023/10/01 03:14:26;;;;;;;8.27;4.80;;;;;;;;;;4999830;28;20439;-86
2023/10/01 03:17:06;;;;;;;6.70;3.87;;;;;;;;;;4996776;28;20562;-87
2023/10/01 03:19:46;;;;;;;3.70;3.33;;;;;;;;;;4996408;28;20467;-88
2023/10/01 03:22:35;;;;;;;4.97;3.70;;;14.20;1.00;;;;;;4995716;28;20455;-88
2023/10/01 03:25:28;;;;;;;6.83;3.73;;;;;;;;;;4994640;28;21003;-88
2023/10/01 03:28:07;;;;;;;6.10;3.60;;;;;;;;;;5000585;28;20456;-87
2023/10/01 03:30:40;;;;;;;8.30;4.03;;;;;;;;;;5010070;28;20452;-87
2023/10/01 03:33:20;;;;;;;7.03;4.70;;;;;;;;;;5006664;28;20429;-87
2023/10/01 03:38:40;;;;;;;6.50;3.53;;;14.20;1.00;;;;;;4987512;28;20436;-88
2023/10/01 03:41:22;;;;;;;5.90;4.00;;;;;;;;;;4999375;28;20456;-88
2023/10/01 03:44:15;;;;;;;5.53;3.30;;;;;;;;;;4997959;28;20567;-88
2023/10/01 03:46:46;;;;;;;8.57;4.00;;;;;;;;;;4998021;28;20484;-89
2023/10/01 03:49:40;;;;;;;5.33;3.17;;;;;;;;;;4997846;28;20458;-89
2023/10/01 03:52:28;;;;;;;8.87;4.43;;;;;;;;;;5012157;28;20440;-89
2023/10/01 03:55:25;;;;;;;9.03;4.40;;;;;;;;;;4998124;28;20828;-88
2023/10/01 03:58:05;;;;;;;11.40;4.90;;;;;;;;;;4999052;28;20532;-89
2023/10/01 04:00:41;;;;;;;4.97;3.50;;;14.30;1.00;;;;;;4997809;28;20463;-89
2023/10/01 04:03:08;;;;;;;4.17;3.57;;;14.30;1.00;;;;;;4997269;28;20472;-89
2023/10/01 04:05:37;;;;;;;6.43;4.23;;;14.30;1.00;;;;;;4997495;28;20475;-89
2023/10/01 04:08:08;;;;;;;11.97;4.87;;;14.30;1.00;;;;;;4999783;28;20451;-88
2023/10/01 04:10:38;;;;;;;8.37;4.43;;;14.30;1.00;;;;;;5007912;28;20432;-87
2023/10/01 04:13:13;;;;;;;6.97;3.93;;;14.20;99.90;;;;;;5014260;28;20436;-87
2023/10/01 04:15:43;;;;;;;6.53;4.63;;;14.10;99.90;;;;;;5000618;28;20800;-87
2023/10/01 04:18:19;;;;;;;6.77;3.87;;;14.30;1.00;;;;;;5009671;28;20440;-87
2023/10/01 04:21:17;;;;;;;4.80;4.00;;;14.30;1.00;;;;;;5018766;28;20452;-88
2023/10/01 04:23:47;;;;;;;5.37;4.20;;;14.20;1.00;;;;;;5019842;28;20539;-87
2023/10/01 04:26:16;;;;;;;7.47;5.80;;;14.20;1.00;;;;;;5019676;28;20463;-88
2023/10/01 04:28:45;;;;;;;13.23;5.10;;;14.50;99.90;;;;;;5001190;28;20444;-87
2023/10/01 04:31:18;;;;;;;9.10;4.70;;;14.10;1.00;;;;;;5015989;28;20459;-87
2023/10/01 04:33:48;;;;;;;7.83;4.00;;;14.20;1.00;;;;;;5015156;28;20436;-87
2023/10/01 04:36:17;;;;;;;4.77;4.07;;;14.20;1.00;;;;;;4998533;28;20468;-87
2023/10/01 04:38:45;;;;;;;6.37;4.20;;;14.20;1.00;;;;;;5000713;28;20479;-87
2023/10/01 04:41:16;;;;;;;10.03;3.90;;;14.20;1.00;;;;;;4998110;28;20534;-87
2023/10/01 04:43:55;;;;;;;6.13;4.90;;;14.20;6.30;;;;;;5000985;28;20494;-87
2023/10/01 04:46:25;;;;;;;10.47;6.47;;;14.20;1.00;;;;;;4998299;28;20476;-87
2023/10/01 04:48:52;;;;;;;34.17;25.50;;;14.20;1.00;;;;;;4998571;28;20436;-87
2023/10/01 04:51:21;;;;;;;29.33;21.93;;;14.20;1.00;;;;;;4998728;28;20477;-87
2023/10/01 04:53:49;;;;;;;19.23;10.27;;;14.20;1.00;;;;;;4999131;28;20452;-87
2023/10/01 04:56:20;;;;;;;8.30;5.37;;;14.20;1.00;;;;;;5009438;28;20503;-87
2023/10/01 04:58:51;;;;;;;5.23;4.70;;;14.30;1.00;;;;;;5021052;28;20459;-88
2023/10/01 05:01:23;;;;;;;9.10;5.40;;;14.20;99.90;;;;;;5021253;28;20452;-88
2023/10/01 05:03:54;;;;;;;7.03;4.87;;;14.30;1.00;;;;;;5021211;28;20469;-87
2023/10/01 05:06:22;;;;;;;7.37;4.53;;;14.30;1.00;;;;;;5016507;28;20483;-87
2023/10/01 05:08:53;;;;;;;10.13;4.90;;;14.10;99.90;;;;;;5012448;28;20471;-88
2023/10/01 05:11:22;;;;;;;5.80;4.73;;;14.30;1.00;;;;;;5006201;28;20436;-88
2023/10/01 05:13:51;;;;;;;8.03;4.20;;;14.30;1.00;;;;;;5007602;28;20452;-87
2023/10/01 05:16:26;;;;;;;8.37;5.37;;;14.30;1.00;;;;;;5006954;28;20476;-88
2023/10/01 05:19:10;;;;;;;7.10;4.33;;;14.30;1.00;;;;;;5007351;28;20430;-88
2023/10/01 05:21:41;;;;;;;7.40;4.50;;;14.30;1.00;;;;;;5011810;28;20428;-88
2023/10/01 05:24:10;;;;;;;5.70;3.70;;;14.60;99.90;;;;;;5016782;28;20463;-87
2023/10/01 05:26:38;;;;;;;4.50;4.03;;;14.20;1.00;;;;;;5009200;28;20713;-88
2023/10/01 05:29:07;;;;;;;16.17;5.77;;;14.40;99.90;;;;;;5000688;28;20483;-89
2023/10/01 05:31:40;;;;;;;6.73;4.30;;;14.30;1.00;;;;;;5005771;28;20499;-88
2023/10/01 05:34:11;;;;;;;6.20;4.00;;;14.20;1.00;;;;;;5002161;28;20449;-88
2023/10/01 05:36:40;;;;;;;6.40;4.93;;;14.60;1.00;;;;;;4998727;28;20559;-88
2023/10/01 05:39:11;;;;;;;7.70;4.93;;;14.40;1.00;;;;;;4998510;28;20532;-87
2023/10/01 05:41:44;;;;;;;8.13;4.07;;;14.10;99.90;;;;;;4998991;28;20469;-87
2023/10/01 05:44:51;;;;;;;4.93;4.30;;;14.30;1.00;;;;;;4999991;28;20820;-91
2023/10/01 05:47:41;;;;;;;7.20;4.87;;;;;;;;;;4996732;28;20467;-87
2023/10/01 05:50:11;;;;;;;8.80;4.73;;;14.30;1.00;;;;;;4997821;28;20464;-87
2023/10/01 05:52:45;;;;;;;10.23;4.37;;;14.60;99.90;;;;;;4997129;28;20519;-90
2023/10/01 05:55:15;;;;;;;8.37;4.13;;;;;;;;;;4998491;28;20473;-88
2023/10/01 05:57:42;;;;;;;6.97;4.63;;;14.30;99.90;;;;;;4997572;28;20492;-88
2023/10/01 06:00:16;;;;;;;6.53;4.23;;;14.40;1.00;;;;;;4997311;28;20487;-88
2023/10/01 06:02:47;;;;;;;5.10;4.43;;;14.20;1.00;;;;;;5010302;28;20424;-88
2023/10/01 06:05:32;;;;;;;8.40;4.60;;;14.40;1.00;;;;;;4999069;28;20919;-88
2023/10/01 06:07:59;;;;;;;7.60;5.03;;;14.40;1.00;;;;;;4998115;28;20920;-88
2023/10/01 06:10:35;;;;;;;8.90;4.47;;;;;;;;;;4997615;28;20455;-87
2023/10/01 06:13:06;;;;;;;6.47;4.13;;;14.50;99.90;;;;;;4997556;28;20436;-88
2023/10/01 06:15:33;;;;;;;4.17;3.77;;;14.50;1.00;;;;;;4998318;28;20464;-88
2023/10/01 06:18:00;;;;;;;7.00;4.70;;;14.50;1.00;;;;;;4999653;28;20476;-88
2023/10/01 06:20:29;;;;;;;12.10;3.97;;;14.60;1.00;;;;;;5000669;28;20547;-88
2023/10/01 06:22:56;;;;;;;7.07;4.00;;;14.50;1.00;;;;;;5001004;28;20447;-88
2023/10/01 06:25:40;;;;;;;4.53;4.00;;;14.60;1.00;;;;;;5000798;28;20491;-88
2023/10/01 06:28:11;;;;;;;12.70;4.73;;;14.70;1.00;;;;;;5002256;28;20464;-88
2023/10/01 06:30:40;;;;;;;8.30;4.93;;;14.60;1.00;;;;;;5000912;28;20951;-88
2023/10/01 06:33:09;;;;;;;6.43;4.20;;;14.70;1.00;;;;;;4997263;28;20452;-90
2023/10/01 06:36:04;;;;;;;9.50;4.30;;;14.70;1.00;;;;;;4997653;28;20476;-91
2023/10/01 06:38:26;;;;;;;8.40;4.10;;;14.70;1.00;;;;;;4996946;28;20507;-90
2023/10/01 06:40:53;;;;;;;9.33;4.27;;;14.70;1.00;;;;;;4998742;28;20452;-90
2023/10/01 06:43:21;;;;;;;8.37;4.33;;;14.70;99.90;;;;;;5011515;28;20456;-91
2023/10/01 06:45:49;;;;;;;6.53;4.63;;;;;;;;;;5011117;28;20491;-91
2023/10/01 06:48:20;;;;;;;9.80;4.40;;;15.10;99.90;;;;;;5018891;23;20541;-88
2023/10/01 06:50:49;;;;;;;7.50;4.43;;;14.80;99.90;;;;;;4997611;28;20452;-87
2023/10/01 06:53:17;;;;;;;7.55;3.90;;;;;;;;;;4999513;28;20527;-89
2023/10/01 06:55:47;;;;;;;6.60;4.20;;;14.80;1.00;;;;;;5008062;28;20201;-88
2023/10/01 06:58:17;;;;;;;7.53;4.60;;;;;;;;;;5017518;28;20479;-88
2023/10/01 09:12:58;;;;;;;;;;;;;;;;;;;;;
2023/10/01 09:29:13;;;;;;;6.20;4.37;;;17.50;1.00;;;;;;4902730;29;20970;-86
2023/10/01 09:35:59;;;;;;;10.70;4.27;;;17.70;1.00;;;;;;4883408;29;20439;-86
2023/10/01 09:41:58;;;;;;;9.97;5.47;;;17.90;1.00;;;;;;4893830;29;20470;-85
2023/10/01 09:52:26;;;;;;;;;;;;;;;;;;;;;
2023/10/01 09:58:46;;;;;;;5.60;4.87;;;18.30;1.00;;;;;;4816760;29;20436;-86
2023/10/01 11:39:45;;;;;;;6.07;5.37;;;19.60;1.00;;;;;;4718031;30;20451;-86
2023/10/01 17:29:44;;;;;;;;;;;;;;;;;;;;;
2023/10/01 18:12:48;;;;;;;22.93;15.77;;;15.70;99.90;;;;;;5200137;23;20489;-89
2023/10/01 18:29:25;;;;;;;18.17;13.47;;;;;;;;;;4913826;29;20442;-87
2023/10/01 18:31:52;;;;;;;20.53;14.30;;;;;;;;;;4962233;29;20456;-88
2023/10/01 18:34:26;;;;;;;14.27;11.37;;;15.70;99.90;;;;;;4966823;28;20442;-88
2023/10/01 18:36:58;;;;;;;18.20;11.07;;;15.60;99.90;;;;;;4980428;28;20429;-88
2023/10/01 18:39:32;;;;;;;18.30;15.00;;;15.70;99.90;;;;;;4979962;28;20464;-86
2023/10/01 18:42:00;;;;;;;19.93;15.60;;;16.00;99.90;;;;;;4980265;28;20458;-87
2023/10/01 19:00:47;;;;;;;;;;;;;;;;;;;;;
2023/10/01 19:54:01;;;;;;;16.87;12.07;;;16.10;99.90;;;;;;4993342;28;20522;-89
2023/10/01 21:31:33;;;;;;;9.27;7.60;;;;;;;;;;5360803;23;20483;-91
2023/10/01 21:36:50;;;;;;;12.80;9.00;;;16.00;99.90;;;;;;5006980;28;20429;-89
2023/10/01 21:39:25;;;;;;;14.73;9.57;;;;;;;;;;5015227;28;20442;-89
